sensor_id;sensor_type;location;lat;lon;timestamp;P1;durP1;ratioP1;P2;durP2;ratioP2
75772;SDS011;64381;0.000;0.000;2023-05-10T00:01:02;3.43;;;1.80;;
75772;SDS011;64381;0.000;0.000;2023-05-10T00:03:27;3.60;;;1.80;;
75772;SDS011;64381;0.000;0.000;2023-05-10T00:05:52;3.50;;;1.80;;
75772;SDS011;64381;0.000;0.000;2023-05-10T00:08:18;3.97;;;1.60;;
75772;SDS011;64381;0.000;0.000;2023-05-10T00:10:43;3.30;;;1.70;;
75772;SDS011;64381;0.000;0.000;2023-05-10T00:13:08;3.30;;;1.70;;
75772;SDS011;64381;0.000;0.000;2023-05-10T00:15:33;3.53;;;1.80;;
75772;SDS011;64381;0.000;0.000;2023-05-10T00:17:59;3.10;;;1.67;;
75772;SDS011;64381;0.000;0.000;2023-05-10T00:20:24;3.27;;;1.80;;
75772;SDS011;64381;0.000;0.000;2023-05-10T00:22:49;3.27;;;1.70;;
75772;SDS011;64381;0.000;0.000;2023-05-10T00:25:14;3.30;;;1.60;;
75772;SDS011;64381;0.000;0.000;2023-05-10T00:27:40;4.50;;;2.00;;
75772;SDS011;64381;0.000;0.000;2023-05-10T00:30:05;3.50;;;1.80;;
75772;SDS011;64381;0.000;0.000;2023-05-10T00:32:31;3.63;;;1.80;;
75772;SDS011;64381;0.000;0.000;2023-05-10T00:34:56;3.20;;;1.60;;
75772;SDS011;64381;0.000;0.000;2023-05-10T00:37:22;3.10;;;1.70;;
75772;SDS011;64381;0.000;0.000;2023-05-10T00:39:47;3.40;;;1.53;;
75772;SDS011;64381;0.000;0.000;2023-05-10T00:42:12;3.40;;;1.70;;
75772;SDS011;64381;0.000;0.000;2023-05-10T00:44:37;3.30;;;1.50;;
75772;SDS011;64381;0.000;0.000;2023-05-10T00:47:03;3.73;;;1.70;;
75772;SDS011;64381;0.000;0.000;2023-05-10T00:49:28;3.53;;;1.67;;
75772;SDS011;64381;0.000;0.000;2023-05-10T00:51:53;3.22;;;1.63;;
75772;SDS011;64381;0.000;0.000;2023-05-10T00:54:19;3.00;;;1.57;;
75772;SDS011;64381;0.000;0.000;2023-05-10T00:56:44;3.10;;;1.50;;
75772;SDS011;64381;0.000;0.000;2023-05-10T00:59:10;3.40;;;1.60;;
75772;SDS011;64381;0.000;0.000;2023-05-10T01:01:35;3.70;;;1.70;;
75772;SDS011;64381;0.000;0.000;2023-05-10T01:04:00;3.30;;;1.73;;
75772;SDS011;64381;0.000;0.000;2023-05-10T01:06:26;2.83;;;1.50;;
75772;SDS011;64381;0.000;0.000;2023-05-10T01:08:51;3.30;;;1.80;;
75772;SDS011;64381;0.000;0.000;2023-05-10T01:11:17;3.47;;;1.70;;
75772;SDS011;64381;0.000;0.000;2023-05-10T01:13:42;3.67;;;1.83;;
75772;SDS011;64381;0.000;0.000;2023-05-10T01:16:12;3.20;;;1.90;;
75772;SDS011;64381;0.000;0.000;2023-05-10T01:18:38;3.10;;;1.50;;
75772;SDS011;64381;0.000;0.000;2023-05-10T01:33:56;3.40;;;1.50;;
75772;SDS011;64381;0.000;0.000;2023-05-10T01:36:35;3.00;;;1.50;;
75772;SDS011;64381;0.000;0.000;2023-05-10T01:39:12;3.33;;;1.50;;
75772;SDS011;64381;0.000;0.000;2023-05-10T01:47:01;3.15;;;1.60;;
75772;SDS011;64381;0.000;0.000;2023-05-10T01:49:31;3.00;;;1.50;;
75772;SDS011;64381;0.000;0.000;2023-05-10T01:52:00;3.17;;;1.55;;
75772;SDS011;64381;0.000;0.000;2023-05-10T01:54:31;3.47;;;1.70;;
75772;SDS011;64381;0.000;0.000;2023-05-10T01:57:03;3.30;;;1.63;;
75772;SDS011;64381;0.000;0.000;2023-05-10T01:59:30;3.03;;;1.40;;
75772;SDS011;64381;0.000;0.000;2023-05-10T02:01:59;3.25;;;1.52;;
75772;SDS011;64381;0.000;0.000;2023-05-10T02:04:26;3.60;;;1.58;;
75772;SDS011;64381;0.000;0.000;2023-05-10T02:06:53;3.20;;;1.70;;
75772;SDS011;64381;0.000;0.000;2023-05-10T02:09:20;3.40;;;1.83;;
75772;SDS011;64381;0.000;0.000;2023-05-10T02:11:46;3.28;;;1.67;;
75772;SDS011;64381;0.000;0.000;2023-05-10T02:14:13;3.25;;;1.75;;
75772;SDS011;64381;0.000;0.000;2023-05-10T02:16:40;3.50;;;1.70;;
75772;SDS011;64381;0.000;0.000;2023-05-10T02:19:05;3.50;;;1.70;;
75772;SDS011;64381;0.000;0.000;2023-05-10T02:21:32;3.78;;;1.70;;
75772;SDS011;64381;0.000;0.000;2023-05-10T02:23:58;3.00;;;1.40;;
75772;SDS011;64381;0.000;0.000;2023-05-10T02:26:25;3.42;;;1.60;;
75772;SDS011;64381;0.000;0.000;2023-05-10T02:28:51;3.43;;;1.60;;
75772;SDS011;64381;0.000;0.000;2023-05-10T02:31:18;3.13;;;1.55;;
75772;SDS011;64381;0.000;0.000;2023-05-10T02:33:44;3.10;;;1.50;;
75772;SDS011;64381;0.000;0.000;2023-05-10T02:36:11;3.10;;;1.60;;
75772;SDS011;64381;0.000;0.000;2023-05-10T02:38:37;3.10;;;1.42;;
75772;SDS011;64381;0.000;0.000;2023-05-10T02:41:03;3.37;;;1.47;;
75772;SDS011;64381;0.000;0.000;2023-05-10T02:43:31;3.33;;;1.67;;
75772;SDS011;64381;0.000;0.000;2023-05-10T02:45:58;3.10;;;1.40;;
75772;SDS011;64381;0.000;0.000;2023-05-10T02:48:23;3.30;;;1.47;;
75772;SDS011;64381;0.000;0.000;2023-05-10T02:50:48;3.40;;;1.70;;
75772;SDS011;64381;0.000;0.000;2023-05-10T02:53:21;3.15;;;1.50;;
75772;SDS011;64381;0.000;0.000;2023-05-10T02:55:49;2.95;;;1.50;;
75772;SDS011;64381;0.000;0.000;2023-05-10T02:58:16;3.13;;;1.50;;
75772;SDS011;64381;0.000;0.000;2023-05-10T03:00:41;3.33;;;1.57;;
75772;SDS011;64381;0.000;0.000;2023-05-10T03:03:07;3.20;;;1.57;;
75772;SDS011;64381;0.000;0.000;2023-05-10T03:05:32;2.93;;;1.50;;
75772;SDS011;64381;0.000;0.000;2023-05-10T03:07:57;3.37;;;1.70;;
75772;SDS011;64381;0.000;0.000;2023-05-10T03:10:24;3.10;;;1.60;;
75772;SDS011;64381;0.000;0.000;2023-05-10T03:15:47;3.03;;;1.60;;
75772;SDS011;64381;0.000;0.000;2023-05-10T03:18:23;2.80;;;1.20;;
75772;SDS011;64381;0.000;0.000;2023-05-10T03:20:57;3.33;;;1.50;;
75772;SDS011;64381;0.000;0.000;2023-05-10T03:23:30;3.35;;;1.70;;
75772;SDS011;64381;0.000;0.000;2023-05-10T03:26:00;3.13;;;1.52;;
75772;SDS011;64381;0.000;0.000;2023-05-10T03:28:26;3.10;;;1.60;;
75772;SDS011;64381;0.000;0.000;2023-05-10T03:30:52;3.97;;;1.70;;
75772;SDS011;64381;0.000;0.000;2023-05-10T03:33:18;3.38;;;1.70;;
75772;SDS011;64381;0.000;0.000;2023-05-10T03:35:43;3.60;;;1.70;;
75772;SDS011;64381;0.000;0.000;2023-05-10T03:38:08;2.90;;;1.30;;
75772;SDS011;64381;0.000;0.000;2023-05-10T03:40:33;3.10;;;1.50;;
75772;SDS011;64381;0.000;0.000;2023-05-10T03:42:59;3.47;;;1.50;;
75772;SDS011;64381;0.000;0.000;2023-05-10T03:45:24;3.30;;;1.63;;
75772;SDS011;64381;0.000;0.000;2023-05-10T03:47:50;3.00;;;1.23;;
75772;SDS011;64381;0.000;0.000;2023-05-10T03:50:15;3.42;;;1.60;;
75772;SDS011;64381;0.000;0.000;2023-05-10T03:52:41;3.10;;;1.40;;
75772;SDS011;64381;0.000;0.000;2023-05-10T03:55:06;3.23;;;1.53;;
75772;SDS011;64381;0.000;0.000;2023-05-10T03:57:32;3.27;;;1.53;;
75772;SDS011;64381;0.000;0.000;2023-05-10T03:59:57;3.00;;;1.50;;
75772;SDS011;64381;0.000;0.000;2023-05-10T04:02:22;4.23;;;1.53;;
75772;SDS011;64381;0.000;0.000;2023-05-10T04:04:47;3.13;;;1.50;;
75772;SDS011;64381;0.000;0.000;2023-05-10T04:07:12;3.00;;;1.50;;
75772;SDS011;64381;0.000;0.000;2023-05-10T04:09:38;2.97;;;1.57;;
75772;SDS011;64381;0.000;0.000;2023-05-10T04:12:03;2.97;;;1.43;;
75772;SDS011;64381;0.000;0.000;2023-05-10T04:14:28;3.07;;;1.40;;
75772;SDS011;64381;0.000;0.000;2023-05-10T04:16:53;3.20;;;1.47;;
75772;SDS011;64381;0.000;0.000;2023-05-10T04:19:19;3.17;;;1.53;;
75772;SDS011;64381;0.000;0.000;2023-05-10T04:21:44;3.20;;;1.50;;
75772;SDS011;64381;0.000;0.000;2023-05-10T04:24:09;3.37;;;1.70;;
75772;SDS011;64381;0.000;0.000;2023-05-10T04:26:34;3.07;;;1.50;;
75772;SDS011;64381;0.000;0.000;2023-05-10T04:28:59;3.47;;;1.80;;
75772;SDS011;64381;0.000;0.000;2023-05-10T04:31:25;3.30;;;1.63;;
75772;SDS011;64381;0.000;0.000;2023-05-10T04:33:50;3.10;;;1.50;;
75772;SDS011;64381;0.000;0.000;2023-05-10T04:36:15;2.90;;;1.33;;
75772;SDS011;64381;0.000;0.000;2023-05-10T04:38:40;3.13;;;1.70;;
75772;SDS011;64381;0.000;0.000;2023-05-10T04:41:06;2.80;;;1.40;;
75772;SDS011;64381;0.000;0.000;2023-05-10T04:43:32;3.05;;;1.70;;
75772;SDS011;64381;0.000;0.000;2023-05-10T04:45:58;3.20;;;1.60;;
75772;SDS011;64381;0.000;0.000;2023-05-10T04:48:23;3.05;;;1.30;;
75772;SDS011;64381;0.000;0.000;2023-05-10T04:50:48;3.08;;;1.52;;
75772;SDS011;64381;0.000;0.000;2023-05-10T04:53:14;3.15;;;1.60;;
75772;SDS011;64381;0.000;0.000;2023-05-10T04:55:39;3.17;;;1.60;;
75772;SDS011;64381;0.000;0.000;2023-05-10T04:58:04;3.10;;;1.50;;
75772;SDS011;64381;0.000;0.000;2023-05-10T05:00:30;3.20;;;1.40;;
75772;SDS011;64381;0.000;0.000;2023-05-10T05:02:55;3.50;;;1.37;;
75772;SDS011;64381;0.000;0.000;2023-05-10T05:05:20;3.10;;;1.50;;
75772;SDS011;64381;0.000;0.000;2023-05-10T05:07:45;3.00;;;1.40;;
75772;SDS011;64381;0.000;0.000;2023-05-10T05:10:10;3.10;;;1.33;;
75772;SDS011;64381;0.000;0.000;2023-05-10T05:12:36;3.63;;;1.50;;
75772;SDS011;64381;0.000;0.000;2023-05-10T05:15:01;2.90;;;1.40;;
75772;SDS011;64381;0.000;0.000;2023-05-10T05:17:27;3.60;;;1.60;;
75772;SDS011;64381;0.000;0.000;2023-05-10T05:19:52;2.90;;;1.40;;
75772;SDS011;64381;0.000;0.000;2023-05-10T05:22:17;3.00;;;1.40;;
75772;SDS011;64381;0.000;0.000;2023-05-10T05:24:42;3.20;;;1.50;;
75772;SDS011;64381;0.000;0.000;2023-05-10T05:27:08;2.90;;;1.37;;
75772;SDS011;64381;0.000;0.000;2023-05-10T05:29:33;3.40;;;1.57;;
75772;SDS011;64381;0.000;0.000;2023-05-10T05:31:58;3.03;;;1.30;;
75772;SDS011;64381;0.000;0.000;2023-05-10T05:34:23;2.90;;;1.40;;
75772;SDS011;64381;0.000;0.000;2023-05-10T05:36:49;3.03;;;1.40;;
75772;SDS011;64381;0.000;0.000;2023-05-10T05:39:14;3.00;;;1.20;;
75772;SDS011;64381;0.000;0.000;2023-05-10T05:41:39;2.80;;;1.30;;
75772;SDS011;64381;0.000;0.000;2023-05-10T05:44:04;2.77;;;1.23;;
75772;SDS011;64381;0.000;0.000;2023-05-10T05:46:30;3.07;;;1.40;;
75772;SDS011;64381;0.000;0.000;2023-05-10T05:48:55;3.00;;;1.40;;
75772;SDS011;64381;0.000;0.000;2023-05-10T05:51:20;2.90;;;1.40;;
75772;SDS011;64381;0.000;0.000;2023-05-10T06:58:18;2.83;;;1.30;;
75772;SDS011;64381;0.000;0.000;2023-05-10T07:00:43;3.23;;;1.17;;
75772;SDS011;64381;0.000;0.000;2023-05-10T07:03:11;2.90;;;1.20;;
75772;SDS011;64381;0.000;0.000;2023-05-10T07:05:37;2.63;;;1.10;;
75772;SDS011;64381;0.000;0.000;2023-05-10T07:08:02;2.70;;;1.20;;
75772;SDS011;64381;0.000;0.000;2023-05-10T07:10:27;2.80;;;1.10;;
75772;SDS011;64381;0.000;0.000;2023-05-10T07:12:53;3.23;;;1.40;;
75772;SDS011;64381;0.000;0.000;2023-05-10T07:15:18;3.13;;;1.30;;
75772;SDS011;64381;0.000;0.000;2023-05-10T07:17:43;3.17;;;1.27;;
75772;SDS011;64381;0.000;0.000;2023-05-10T07:20:08;3.00;;;1.47;;
75772;SDS011;64381;0.000;0.000;2023-05-10T07:22:34;3.00;;;1.30;;
75772;SDS011;64381;0.000;0.000;2023-05-10T07:24:59;2.90;;;1.10;;
75772;SDS011;64381;0.000;0.000;2023-05-10T07:27:24;2.80;;;1.20;;
75772;SDS011;64381;0.000;0.000;2023-05-10T07:29:50;2.85;;;1.27;;
75772;SDS011;64381;0.000;0.000;2023-05-10T07:32:15;2.83;;;1.27;;
75772;SDS011;64381;0.000;0.000;2023-05-10T07:34:40;2.80;;;1.17;;
75772;SDS011;64381;0.000;0.000;2023-05-10T07:37:05;2.93;;;1.10;;
75772;SDS011;64381;0.000;0.000;2023-05-10T07:39:31;2.90;;;1.20;;
75772;SDS011;64381;0.000;0.000;2023-05-10T07:41:56;3.50;;;1.30;;
75772;SDS011;64381;0.000;0.000;2023-05-10T07:44:21;2.87;;;1.17;;
75772;SDS011;64381;0.000;0.000;2023-05-10T07:46:47;2.87;;;1.10;;
75772;SDS011;64381;0.000;0.000;2023-05-10T07:49:12;2.90;;;1.23;;
75772;SDS011;64381;0.000;0.000;2023-05-10T07:51:37;2.90;;;1.50;;
75772;SDS011;64381;0.000;0.000;2023-05-10T07:54:02;2.80;;;1.40;;
75772;SDS011;64381;0.000;0.000;2023-05-10T07:56:29;2.90;;;1.20;;
75772;SDS011;64381;0.000;0.000;2023-05-10T07:58:55;3.42;;;1.48;;
75772;SDS011;64381;0.000;0.000;2023-05-10T08:01:21;3.03;;;1.20;;
75772;SDS011;64381;0.000;0.000;2023-05-10T08:03:47;3.30;;;1.30;;
75772;SDS011;64381;0.000;0.000;2023-05-10T08:06:13;2.90;;;1.27;;
75772;SDS011;64381;0.000;0.000;2023-05-10T08:08:39;3.00;;;1.30;;
75772;SDS011;64381;0.000;0.000;2023-05-10T08:11:05;3.30;;;1.20;;
75772;SDS011;64381;0.000;0.000;2023-05-10T08:13:30;2.90;;;1.20;;
75772;SDS011;64381;0.000;0.000;2023-05-10T08:15:55;2.80;;;1.20;;
75772;SDS011;64381;0.000;0.000;2023-05-10T08:18:20;3.30;;;1.30;;
75772;SDS011;64381;0.000;0.000;2023-05-10T08:20:45;2.80;;;1.23;;
75772;SDS011;64381;0.000;0.000;2023-05-10T08:23:13;3.07;;;1.03;;
75772;SDS011;64381;0.000;0.000;2023-05-10T08:25:39;3.10;;;1.10;;
75772;SDS011;64381;0.000;0.000;2023-05-10T08:28:04;3.20;;;1.10;;
75772;SDS011;64381;0.000;0.000;2023-05-10T08:30:29;3.07;;;1.07;;
75772;SDS011;64381;0.000;0.000;2023-05-10T08:32:54;2.80;;;1.17;;
75772;SDS011;64381;0.000;0.000;2023-05-10T08:35:20;2.80;;;1.10;;
75772;SDS011;64381;0.000;0.000;2023-05-10T08:37:45;2.90;;;1.03;;
75772;SDS011;64381;0.000;0.000;2023-05-10T08:40:11;3.33;;;1.10;;
75772;SDS011;64381;0.000;0.000;2023-05-10T08:42:36;4.30;;;1.27;;
75772;SDS011;64381;0.000;0.000;2023-05-10T08:45:05;3.22;;;1.00;;
75772;SDS011;64381;0.000;0.000;2023-05-10T08:47:32;3.08;;;1.20;;
75772;SDS011;64381;0.000;0.000;2023-05-10T08:49:58;2.88;;;1.10;;
75772;SDS011;64381;0.000;0.000;2023-05-10T08:52:24;3.58;;;1.08;;
75772;SDS011;64381;0.000;0.000;2023-05-10T08:54:52;3.58;;;1.20;;
75772;SDS011;64381;0.000;0.000;2023-05-10T08:57:18;3.00;;;1.10;;
75772;SDS011;64381;0.000;0.000;2023-05-10T08:59:44;5.45;;;1.25;;
75772;SDS011;64381;0.000;0.000;2023-05-10T09:02:09;2.70;;;1.00;;
75772;SDS011;64381;0.000;0.000;2023-05-10T09:04:36;2.65;;;1.15;;
75772;SDS011;64381;0.000;0.000;2023-05-10T09:07:01;3.10;;;1.10;;
75772;SDS011;64381;0.000;0.000;2023-05-10T09:09:27;3.43;;;1.03;;
75772;SDS011;64381;0.000;0.000;2023-05-10T09:11:52;3.10;;;1.00;;
75772;SDS011;64381;0.000;0.000;2023-05-10T09:14:18;4.32;;;1.10;;
75772;SDS011;64381;0.000;0.000;2023-05-10T09:16:44;2.60;;;1.10;;
75772;SDS011;64381;0.000;0.000;2023-05-10T09:19:10;4.00;;;1.10;;
75772;SDS011;64381;0.000;0.000;2023-05-10T09:21:36;3.88;;;1.20;;
75772;SDS011;64381;0.000;0.000;2023-05-10T09:24:08;3.80;;;1.00;;
75772;SDS011;64381;0.000;0.000;2023-05-10T09:26:34;2.53;;;0.90;;
75772;SDS011;64381;0.000;0.000;2023-05-10T09:29:00;4.53;;;1.20;;
75772;SDS011;64381;0.000;0.000;2023-05-10T09:31:42;2.90;;;1.07;;
75772;SDS011;64381;0.000;0.000;2023-05-10T09:34:15;2.72;;;1.10;;
75772;SDS011;64381;0.000;0.000;2023-05-10T09:36:52;4.63;;;1.10;;
75772;SDS011;64381;0.000;0.000;2023-05-10T09:39:21;4.23;;;1.13;;
75772;SDS011;64381;0.000;0.000;2023-05-10T09:41:55;4.00;;;1.02;;
75772;SDS011;64381;0.000;0.000;2023-05-10T09:44:20;2.57;;;0.90;;
75772;SDS011;64381;0.000;0.000;2023-05-10T09:46:48;2.60;;;1.00;;
75772;SDS011;64381;0.000;0.000;2023-05-10T09:49:14;3.03;;;1.05;;
75772;SDS011;64381;0.000;0.000;2023-05-10T09:51:39;2.93;;;1.00;;
75772;SDS011;64381;0.000;0.000;2023-05-10T09:54:11;3.03;;;1.20;;
75772;SDS011;64381;0.000;0.000;2023-05-10T09:56:40;3.42;;;0.90;;
75772;SDS011;64381;0.000;0.000;2023-05-10T09:59:07;2.73;;;1.10;;
75772;SDS011;64381;0.000;0.000;2023-05-10T10:01:34;3.97;;;1.15;;
75772;SDS011;64381;0.000;0.000;2023-05-10T10:04:02;2.57;;;1.00;;
75772;SDS011;64381;0.000;0.000;2023-05-10T10:06:29;3.03;;;1.00;;
75772;SDS011;64381;0.000;0.000;2023-05-10T10:08:54;2.97;;;1.00;;
75772;SDS011;64381;0.000;0.000;2023-05-10T10:11:19;2.70;;;0.80;;
75772;SDS011;64381;0.000;0.000;2023-05-10T10:13:45;2.70;;;1.10;;
75772;SDS011;64381;0.000;0.000;2023-05-10T10:16:10;3.20;;;0.90;;
75772;SDS011;64381;0.000;0.000;2023-05-10T10:18:36;2.60;;;1.00;;
75772;SDS011;64381;0.000;0.000;2023-05-10T10:21:01;2.50;;;0.80;;
75772;SDS011;64381;0.000;0.000;2023-05-10T10:23:27;3.00;;;1.08;;
75772;SDS011;64381;0.000;0.000;2023-05-10T10:25:52;3.53;;;1.10;;
75772;SDS011;64381;0.000;0.000;2023-05-10T10:28:22;4.18;;;1.00;;
75772;SDS011;64381;0.000;0.000;2023-05-10T10:30:53;2.80;;;0.90;;
75772;SDS011;64381;0.000;0.000;2023-05-10T10:36:21;3.20;;;1.38;;
75772;SDS011;64381;0.000;0.000;2023-05-10T10:41:28;2.38;;;0.80;;
75772;SDS011;64381;0.000;0.000;2023-05-10T10:47:01;2.60;;;1.02;;
75772;SDS011;64381;0.000;0.000;2023-05-10T10:49:28;3.10;;;1.17;;
75772;SDS011;64381;0.000;0.000;2023-05-10T10:54:52;2.80;;;0.90;;
75772;SDS011;64381;0.000;0.000;2023-05-10T10:57:22;2.80;;;1.05;;
75772;SDS011;64381;0.000;0.000;2023-05-10T10:59:48;2.60;;;1.00;;
75772;SDS011;64381;0.000;0.000;2023-05-10T11:05:23;2.90;;;1.00;;
75772;SDS011;64381;0.000;0.000;2023-05-10T11:07:53;3.10;;;1.00;;
75772;SDS011;64381;0.000;0.000;2023-05-10T11:10:22;2.40;;;0.90;;
75772;SDS011;64381;0.000;0.000;2023-05-10T11:15:33;2.67;;;1.10;;
75772;SDS011;64381;0.000;0.000;2023-05-10T11:18:01;2.80;;;1.30;;
75772;SDS011;64381;0.000;0.000;2023-05-10T11:20:41;2.70;;;1.00;;
75772;SDS011;64381;0.000;0.000;2023-05-10T11:23:11;2.47;;;1.00;;
75772;SDS011;64381;0.000;0.000;2023-05-10T11:25:40;2.83;;;1.00;;
75772;SDS011;64381;0.000;0.000;2023-05-10T11:28:12;2.50;;;1.00;;
75772;SDS011;64381;0.000;0.000;2023-05-10T11:30:41;2.93;;;1.00;;
75772;SDS011;64381;0.000;0.000;2023-05-10T11:33:08;2.50;;;0.80;;
75772;SDS011;64381;0.000;0.000;2023-05-10T11:35:38;3.13;;;0.90;;
75772;SDS011;64381;0.000;0.000;2023-05-10T11:38:07;2.50;;;1.00;;
75772;SDS011;64381;0.000;0.000;2023-05-10T11:40:33;2.60;;;0.80;;
75772;SDS011;64381;0.000;0.000;2023-05-10T11:42:59;2.30;;;0.80;;
75772;SDS011;64381;0.000;0.000;2023-05-10T11:45:24;2.90;;;1.10;;
75772;SDS011;64381;0.000;0.000;2023-05-10T11:47:50;3.23;;;1.00;;
75772;SDS011;64381;0.000;0.000;2023-05-10T11:50:16;2.40;;;0.87;;
75772;SDS011;64381;0.000;0.000;2023-05-10T11:52:42;2.37;;;0.90;;
75772;SDS011;64381;0.000;0.000;2023-05-10T11:55:07;2.70;;;1.03;;
75772;SDS011;64381;0.000;0.000;2023-05-10T11:57:32;2.40;;;1.00;;
75772;SDS011;64381;0.000;0.000;2023-05-10T11:59:58;2.77;;;1.07;;
75772;SDS011;64381;0.000;0.000;2023-05-10T12:02:23;2.60;;;0.80;;
75772;SDS011;64381;0.000;0.000;2023-05-10T12:04:49;3.47;;;0.97;;
75772;SDS011;64381;0.000;0.000;2023-05-10T12:07:15;2.80;;;0.90;;
75772;SDS011;64381;0.000;0.000;2023-05-10T12:09:44;2.72;;;0.90;;
75772;SDS011;64381;0.000;0.000;2023-05-10T12:12:09;2.72;;;0.90;;
75772;SDS011;64381;0.000;0.000;2023-05-10T12:14:35;2.35;;;0.73;;
75772;SDS011;64381;0.000;0.000;2023-05-10T12:17:00;2.80;;;1.00;;
75772;SDS011;64381;0.000;0.000;2023-05-10T12:19:25;2.47;;;0.80;;
75772;SDS011;64381;0.000;0.000;2023-05-10T12:21:51;2.30;;;0.80;;
75772;SDS011;64381;0.000;0.000;2023-05-10T12:24:16;2.70;;;0.90;;
75772;SDS011;64381;0.000;0.000;2023-05-10T12:26:41;2.50;;;0.80;;
75772;SDS011;64381;0.000;0.000;2023-05-10T12:29:16;2.57;;;1.00;;
75772;SDS011;64381;0.000;0.000;2023-05-10T12:31:53;2.30;;;0.80;;
75772;SDS011;64381;0.000;0.000;2023-05-10T12:34:22;2.85;;;1.00;;
75772;SDS011;64381;0.000;0.000;2023-05-10T12:36:51;2.42;;;0.90;;
75772;SDS011;64381;0.000;0.000;2023-05-10T12:39:17;2.42;;;0.90;;
75772;SDS011;64381;0.000;0.000;2023-05-10T12:41:43;2.50;;;0.80;;
75772;SDS011;64381;0.000;0.000;2023-05-10T12:44:08;2.30;;;0.83;;
75772;SDS011;64381;0.000;0.000;2023-05-10T12:46:33;2.57;;;0.80;;
75772;SDS011;64381;0.000;0.000;2023-05-10T12:48:58;2.50;;;0.90;;
75772;SDS011;64381;0.000;0.000;2023-05-10T12:51:23;3.00;;;0.70;;
75772;SDS011;64381;0.000;0.000;2023-05-10T12:53:49;2.47;;;0.80;;
75772;SDS011;64381;0.000;0.000;2023-05-10T12:56:14;2.30;;;0.80;;
75772;SDS011;64381;0.000;0.000;2023-05-10T12:58:39;2.77;;;0.80;;
75772;SDS011;64381;0.000;0.000;2023-05-10T13:01:04;2.30;;;0.80;;
75772;SDS011;64381;0.000;0.000;2023-05-10T13:03:30;2.95;;;1.00;;
75772;SDS011;64381;0.000;0.000;2023-05-10T13:05:55;2.30;;;0.80;;
75772;SDS011;64381;0.000;0.000;2023-05-10T13:08:20;2.83;;;1.00;;
75772;SDS011;64381;0.000;0.000;2023-05-10T13:10:45;2.93;;;0.90;;
75772;SDS011;64381;0.000;0.000;2023-05-10T13:13:11;3.13;;;0.73;;
75772;SDS011;64381;0.000;0.000;2023-05-10T13:15:36;2.53;;;0.90;;
75772;SDS011;64381;0.000;0.000;2023-05-10T13:18:01;2.27;;;0.90;;
75772;SDS011;64381;0.000;0.000;2023-05-10T13:20:26;2.90;;;1.00;;
75772;SDS011;64381;0.000;0.000;2023-05-10T13:22:52;2.60;;;0.90;;
75772;SDS011;64381;0.000;0.000;2023-05-10T13:25:17;2.50;;;0.93;;
75772;SDS011;64381;0.000;0.000;2023-05-10T13:27:43;2.30;;;0.90;;
75772;SDS011;64381;0.000;0.000;2023-05-10T13:30:08;2.60;;;0.80;;
75772;SDS011;64381;0.000;0.000;2023-05-10T13:32:34;2.30;;;0.70;;
75772;SDS011;64381;0.000;0.000;2023-05-10T13:35:00;2.40;;;0.80;;
75772;SDS011;64381;0.000;0.000;2023-05-10T13:37:25;3.10;;;0.90;;
75772;SDS011;64381;0.000;0.000;2023-05-10T13:39:51;2.80;;;1.00;;
75772;SDS011;64381;0.000;0.000;2023-05-10T13:42:17;2.40;;;0.80;;
75772;SDS011;64381;0.000;0.000;2023-05-10T13:44:42;2.60;;;0.90;;
75772;SDS011;64381;0.000;0.000;2023-05-10T13:47:08;3.33;;;1.00;;
75772;SDS011;64381;0.000;0.000;2023-05-10T13:49:33;2.93;;;1.20;;
75772;SDS011;64381;0.000;0.000;2023-05-10T13:51:58;2.70;;;0.83;;
75772;SDS011;64381;0.000;0.000;2023-05-10T13:54:23;2.50;;;0.80;;
75772;SDS011;64381;0.000;0.000;2023-05-10T13:56:49;2.73;;;0.90;;
75772;SDS011;64381;0.000;0.000;2023-05-10T13:59:14;2.20;;;0.77;;
75772;SDS011;64381;0.000;0.000;2023-05-10T14:01:42;2.67;;;0.93;;
75772;SDS011;64381;0.000;0.000;2023-05-10T14:04:08;3.10;;;0.90;;
75772;SDS011;64381;0.000;0.000;2023-05-10T14:06:33;2.95;;;0.88;;
75772;SDS011;64381;0.000;0.000;2023-05-10T14:08:58;2.97;;;1.00;;
75772;SDS011;64381;0.000;0.000;2023-05-10T14:11:23;3.57;;;1.30;;
75772;SDS011;64381;0.000;0.000;2023-05-10T14:13:49;2.97;;;1.00;;
75772;SDS011;64381;0.000;0.000;2023-05-10T14:16:14;3.47;;;1.10;;
75772;SDS011;64381;0.000;0.000;2023-05-10T14:18:39;2.50;;;0.90;;
75772;SDS011;64381;0.000;0.000;2023-05-10T14:21:04;2.90;;;1.10;;
75772;SDS011;64381;0.000;0.000;2023-05-10T14:23:29;2.53;;;0.90;;
75772;SDS011;64381;0.000;0.000;2023-05-10T14:25:55;2.87;;;0.90;;
75772;SDS011;64381;0.000;0.000;2023-05-10T14:28:20;2.93;;;1.00;;
75772;SDS011;64381;0.000;0.000;2023-05-10T14:30:46;2.70;;;0.93;;
75772;SDS011;64381;0.000;0.000;2023-05-10T14:33:11;2.70;;;1.08;;
75772;SDS011;64381;0.000;0.000;2023-05-10T14:35:36;2.40;;;0.90;;
75772;SDS011;64381;0.000;0.000;2023-05-10T14:38:02;3.43;;;1.07;;
75772;SDS011;64381;0.000;0.000;2023-05-10T14:40:27;4.07;;;1.10;;
75772;SDS011;64381;0.000;0.000;2023-05-10T14:42:52;2.63;;;1.00;;
75772;SDS011;64381;0.000;0.000;2023-05-10T14:45:18;2.87;;;1.10;;
75772;SDS011;64381;0.000;0.000;2023-05-10T14:47:43;3.83;;;0.90;;
75772;SDS011;64381;0.000;0.000;2023-05-10T14:50:08;2.77;;;1.10;;
75772;SDS011;64381;0.000;0.000;2023-05-10T14:52:34;2.97;;;1.00;;
75772;SDS011;64381;0.000;0.000;2023-05-10T14:54:59;3.10;;;1.00;;
75772;SDS011;64381;0.000;0.000;2023-05-10T14:57:24;3.63;;;1.10;;
75772;SDS011;64381;0.000;0.000;2023-05-10T14:59:49;2.63;;;1.10;;
75772;SDS011;64381;0.000;0.000;2023-05-10T15:02:14;2.77;;;1.00;;
75772;SDS011;64381;0.000;0.000;2023-05-10T15:04:40;2.93;;;1.10;;
75772;SDS011;64381;0.000;0.000;2023-05-10T15:07:05;2.90;;;1.03;;
75772;SDS011;64381;0.000;0.000;2023-05-10T15:09:30;2.73;;;1.00;;
75772;SDS011;64381;0.000;0.000;2023-05-10T15:11:55;3.53;;;1.00;;
75772;SDS011;64381;0.000;0.000;2023-05-10T15:14:21;2.80;;;1.10;;
75772;SDS011;64381;0.000;0.000;2023-05-10T15:16:47;2.72;;;1.10;;
75772;SDS011;64381;0.000;0.000;2023-05-10T15:19:12;2.90;;;1.10;;
75772;SDS011;64381;0.000;0.000;2023-05-10T15:21:37;2.50;;;1.03;;
75772;SDS011;64381;0.000;0.000;2023-05-10T15:24:03;2.43;;;1.00;;
75772;SDS011;64381;0.000;0.000;2023-05-10T15:26:28;3.03;;;0.90;;
75772;SDS011;64381;0.000;0.000;2023-05-10T15:28:53;3.03;;;1.07;;
75772;SDS011;64381;0.000;0.000;2023-05-10T15:31:18;2.90;;;1.00;;
75772;SDS011;64381;0.000;0.000;2023-05-10T15:33:43;2.93;;;1.17;;
75772;SDS011;64381;0.000;0.000;2023-05-10T15:36:09;3.23;;;1.00;;
75772;SDS011;64381;0.000;0.000;2023-05-10T15:38:34;2.97;;;1.20;;
75772;SDS011;64381;0.000;0.000;2023-05-10T15:40:59;2.93;;;1.10;;
75772;SDS011;64381;0.000;0.000;2023-05-10T15:43:24;2.70;;;0.90;;
75772;SDS011;64381;0.000;0.000;2023-05-10T15:45:50;2.90;;;1.07;;
75772;SDS011;64381;0.000;0.000;2023-05-10T15:48:15;3.17;;;1.10;;
75772;SDS011;64381;0.000;0.000;2023-05-10T15:50:40;2.80;;;1.03;;
75772;SDS011;64381;0.000;0.000;2023-05-10T15:53:05;3.60;;;1.30;;
75772;SDS011;64381;0.000;0.000;2023-05-10T15:55:30;3.67;;;0.93;;
75772;SDS011;64381;0.000;0.000;2023-05-10T15:57:56;3.47;;;1.13;;
75772;SDS011;64381;0.000;0.000;2023-05-10T16:00:21;3.40;;;1.30;;
75772;SDS011;64381;0.000;0.000;2023-05-10T16:02:46;2.90;;;1.10;;
75772;SDS011;64381;0.000;0.000;2023-05-10T16:05:12;2.90;;;1.10;;
75772;SDS011;64381;0.000;0.000;2023-05-10T16:07:37;3.33;;;1.30;;
75772;SDS011;64381;0.000;0.000;2023-05-10T16:10:03;3.30;;;1.10;;
75772;SDS011;64381;0.000;0.000;2023-05-10T16:12:29;3.03;;;1.20;;
75772;SDS011;64381;0.000;0.000;2023-05-10T16:14:55;2.70;;;1.02;;
75772;SDS011;64381;0.000;0.000;2023-05-10T16:17:20;2.80;;;1.10;;
75772;SDS011;64381;0.000;0.000;2023-05-10T16:19:45;3.00;;;1.00;;
75772;SDS011;64381;0.000;0.000;2023-05-10T16:22:10;2.77;;;1.00;;
75772;SDS011;64381;0.000;0.000;2023-05-10T16:24:36;3.10;;;1.13;;
75772;SDS011;64381;0.000;0.000;2023-05-10T16:27:01;2.47;;;1.00;;
75772;SDS011;64381;0.000;0.000;2023-05-10T16:29:26;2.57;;;1.00;;
75772;SDS011;64381;0.000;0.000;2023-05-10T16:31:51;3.43;;;1.30;;
75772;SDS011;64381;0.000;0.000;2023-05-10T16:34:16;2.93;;;1.10;;
75772;SDS011;64381;0.000;0.000;2023-05-10T16:36:42;2.87;;;1.00;;